createdAt,value
2023-04-02T00:01:01.457Z,98456.06
2023-04-02T00:07:24.391Z,98453.13
2023-04-02T00:09:51.903Z,98448.94
2023-04-02T00:12:20.455Z,98460.69
2023-04-02T00:14:56.530Z,98456.06
2023-04-02T00:17:25.073Z,98457.59
2023-04-02T00:20:00.500Z,98453.44
2023-04-02T00:22:30.655Z,98452.06
2023-04-02T00:25:01.724Z,98457.00
2023-04-02T00:27:30.994Z,98461.03
2023-04-02T00:29:59.797Z,98463.50
2023-04-02T00:32:31.404Z,98460.41
2023-04-02T00:34:59.590Z,98469.22
2023-04-02T00:37:32.718Z,98469.41
2023-04-02T00:40:07.365Z,98454.25
2023-04-02T00:42:38.627Z,98462.44
2023-04-02T00:45:08.550Z,98465.06
2023-04-02T00:47:40.133Z,98462.75
2023-04-02T00:50:22.028Z,98466.00
2023-04-02T00:52:52.873Z,98469.41
2023-04-02T00:55:27.330Z,98463.56
2023-04-02T00:57:56.421Z,98466.19
2023-04-02T01:00:30.384Z,98472.97
2023-04-02T01:03:12.563Z,98478.50
2023-04-02T01:05:41.205Z,98468.66
2023-04-02T01:08:26.854Z,98469.09
2023-04-02T01:11:37.132Z,98464.94
2023-04-02T01:14:31.670Z,98464.47
2023-04-02T01:17:22.562Z,98466.31
2023-04-02T01:19:55.975Z,98474.19
2023-04-02T01:22:26.316Z,98476.38
2023-04-02T01:24:59.340Z,98475.28
2023-04-02T01:27:34.526Z,98469.56
2023-04-02T01:30:04.193Z,98478.22
2023-04-02T01:32:31.655Z,98476.66
2023-04-02T01:34:59.141Z,98475.44
2023-04-02T01:37:54.786Z,98478.38
2023-04-02T01:40:46.051Z,98476.06
2023-04-02T01:43:51.283Z,98476.53
2023-04-02T01:46:34.290Z,98470.50
2023-04-02T01:49:14.502Z,98471.59
2023-04-02T01:51:50.364Z,98470.81
2023-04-02T01:54:19.772Z,98473.44
2023-04-02T01:56:48.817Z,98466.34
2023-04-02T01:59:19.640Z,98472.34
2023-04-02T02:02:06.514Z,98469.72
2023-04-02T02:04:37.450Z,98476.69
2023-04-02T02:07:15.031Z,98481.47
2023-04-02T02:09:44.916Z,98484.09
2023-04-02T02:12:14.717Z,98489.34
2023-04-02T02:14:50.813Z,98484.56
2023-04-02T02:17:30.636Z,98485.63
2023-04-02T02:20:00.662Z,98490.75
2023-04-02T02:22:33.924Z,98489.97
2023-04-02T02:25:07.090Z,98484.25
2023-04-02T02:27:56.034Z,98486.09
2023-04-02T02:30:30.676Z,98491.66
2023-04-02T02:33:16.538Z,98490.88
2023-04-02T02:35:55.329Z,98488.25
2023-04-02T02:38:38.483Z,98487.81
2023-04-02T02:41:36.503Z,98482.56
2023-04-02T02:44:09.454Z,98482.56
2023-04-02T02:46:43.870Z,98484.69
2023-04-02T02:49:27.665Z,98485.63
2023-04-02T02:52:01.301Z,98485.00
2023-04-02T02:54:41.413Z,98485.63
2023-04-02T02:57:13.922Z,98488.72
2023-04-02T02:59:43.144Z,98476.97
2023-04-02T03:02:11.141Z,98478.66
2023-04-02T03:04:40.524Z,98484.69
2023-04-02T03:07:14.462Z,98477.44
2023-04-02T03:09:52.534Z,98479.28
2023-04-02T03:12:38.843Z,98479.91
2023-04-02T03:15:27.474Z,98485.44
2023-04-02T03:18:34.746Z,98484.38
2023-04-02T03:21:07.605Z,98490.69
2023-04-02T03:23:44.237Z,98473.41
2023-04-02T03:26:24.869Z,98482.81
2023-04-02T03:29:02.966Z,98483.16
2023-04-02T03:31:41.087Z,98490.25
2023-04-02T03:34:18.152Z,98490.53
2023-04-02T03:36:57.756Z,98481.13
2023-04-02T03:39:54.270Z,98485.59
2023-04-02T03:42:28.089Z,98484.69
2023-04-02T03:45:12.401Z,98503.66
2023-04-02T03:47:48.613Z,98493.44
2023-04-02T03:50:23.802Z,98505.81
2023-04-02T03:52:53.443Z,98498.69
2023-04-02T03:55:33.833Z,98506.28
2023-04-02T04:01:07.498Z,98509.34
2023-04-02T04:03:48.008Z,98513.53
2023-04-02T04:06:43.401Z,98527.13
2023-04-02T04:09:34.745Z,98530.50
2023-04-02T04:12:15.320Z,98532.38
2023-04-02T04:14:50.770Z,98537.31
2023-04-02T04:17:21.541Z,98539.78
2023-04-02T04:20:00.240Z,98535.31
2023-04-02T04:22:29.554Z,98548.75
2023-04-02T04:25:17.597Z,98559.41
2023-04-02T04:28:05.713Z,98553.69
2023-04-02T04:30:52.522Z,98561.72
2023-04-02T04:33:30.576Z,98562.81
2023-04-02T04:36:03.840Z,98566.81
2023-04-02T04:38:41.515Z,98568.50
2023-04-02T04:41:23.814Z,98573.00
2023-04-02T04:44:01.611Z,98575.00
2023-04-02T04:46:42.885Z,98577.19
2023-04-02T04:49:24.565Z,98582.72
2023-04-02T04:52:13.286Z,98595.38
2023-04-02T04:54:41.367Z,98588.28
2023-04-02T04:57:38.519Z,98591.69
2023-04-02T05:00:16.757Z,98596.94
2023-04-02T05:03:15.306Z,98597.03
2023-04-02T05:05:42.935Z,98601.84
2023-04-02T05:08:26.199Z,98604.16
2023-04-02T05:11:13.180Z,98604.16
2023-04-02T05:14:03.673Z,98607.44
2023-04-02T05:16:49.508Z,98610.81
2023-04-02T05:19:25.558Z,98614.53
2023-04-02T05:22:14.950Z,98613.75
2023-04-02T05:25:28.920Z,98613.94
2023-04-02T05:28:19.959Z,98607.59
2023-04-02T05:30:54.729Z,98618.53
2023-04-02T05:33:29.750Z,98613.94
2023-04-02T05:36:10.822Z,98617.78
2023-04-02T05:38:48.511Z,98615.16
2023-04-02T05:41:28.397Z,98617.91
2023-04-02T05:44:12.403Z,98621.00
2023-04-02T05:46:49.925Z,98620.22
2023-04-02T05:49:29.579Z,98621.00
2023-04-02T05:52:00.866Z,98633.84
2023-04-02T05:54:50.565Z,98632.31
2023-04-02T05:57:43.173Z,98641.22
2023-04-02T06:00:26.585Z,98632.75
2023-04-02T06:03:05.030Z,98628.59
2023-04-02T06:05:38.207Z,98634.13
2023-04-02T06:08:14.736Z,98641.53
2023-04-02T06:10:55.556Z,98636.91
2023-04-02T06:13:25.444Z,98639.84
2023-04-02T06:15:53.307Z,98644.28
2023-04-02T06:18:35.598Z,98652.97
2023-04-02T06:21:04.288Z,98647.72
2023-04-02T06:23:43.498Z,98652.66
2023-04-02T06:26:27.171Z,98652.66
2023-04-02T06:29:18.668Z,98661.78
2023-04-02T06:31:56.210Z,98655.28
2023-04-02T06:34:28.621Z,98653.72
2023-04-02T06:37:28.380Z,98665.00
2023-04-02T06:40:07.106Z,98663.91
2023-04-02T06:42:40.075Z,98675.66
2023-04-02T06:45:40.626Z,98665.34
2023-04-02T06:48:29.445Z,98671.53
2023-04-02T06:51:09.322Z,98673.06
2023-04-02T06:53:42.940Z,98680.06
2023-04-02T06:56:31.766Z,98678.06
2023-04-02T06:59:00.131Z,98678.69
2023-04-02T07:01:31.864Z,98675.16
2023-04-02T07:03:59.833Z,98685.81
2023-04-02T07:06:41.564Z,98686.13
2023-04-02T07:09:11.735Z,98672.53
2023-04-02T07:11:42.541Z,98679.53
2023-04-02T07:14:14.320Z,98685.28
2023-04-02T07:16:43.450Z,98684.06
2023-04-02T07:19:19.580Z,98682.69
2023-04-02T07:21:49.542Z,98680.25
2023-04-02T07:24:17.180Z,98690.44
2023-04-02T07:26:44.409Z,98695.22
2023-04-02T07:29:16.658Z,98697.38
2023-04-02T07:31:44.187Z,98700.31
2023-04-02T07:34:10.929Z,98712.06
2023-04-02T07:36:39.643Z,98707.59
2023-04-02T07:39:06.457Z,98702.63
2023-04-02T07:41:51.525Z,98712.38
2023-04-02T07:44:18.994Z,98719.03
2023-04-02T07:46:45.838Z,98721.50
2023-04-02T07:49:12.804Z,98728.13
2023-04-02T07:51:39.804Z,98736.00
2023-04-02T07:54:06.576Z,98737.75
2023-04-02T07:56:33.515Z,98743.63
2023-04-02T07:59:00.305Z,98740.69
2023-04-02T08:01:28.417Z,98745.00
2023-04-02T08:03:57.234Z,98745.00
2023-04-02T08:06:26.109Z,98749.47
2023-04-02T08:08:53.636Z,98752.09
2023-04-02T08:11:21.040Z,98752.09
2023-04-02T08:13:48.168Z,98752.44
2023-04-02T08:16:15.134Z,98754.13
2023-04-02T08:18:44.009Z,98760.31
2023-04-02T08:21:11.552Z,98765.56
2023-04-02T08:23:39.050Z,98759.25
2023-04-02T08:26:06.365Z,98759.56
2023-04-02T08:28:34.542Z,98761.41
2023-04-02T08:31:02.850Z,98767.09
2023-04-02T08:33:29.632Z,98766.94
2023-04-02T08:35:56.534Z,98761.69
2023-04-02T08:38:23.319Z,98769.56
2023-04-02T08:40:54.360Z,98780.25
2023-04-02T08:43:47.944Z,98775.75
2023-04-02T08:46:19.665Z,98777.78
2023-04-02T08:48:53.795Z,98779.31
2023-04-02T08:51:30.505Z,98787.03
2023-04-02T08:54:27.821Z,98796.19
2023-04-02T08:57:23.809Z,98791.69
2023-04-02T09:00:16.967Z,98797.56
2023-04-02T09:02:52.537Z,98805.00
2023-04-02T09:05:28.238Z,98797.72
2023-04-02T09:07:59.274Z,98808.38
2023-04-02T09:10:44.537Z,98815.00
2023-04-02T09:13:42.737Z,98819.78
2023-04-02T09:16:17.642Z,98822.56
2023-04-02T09:18:45.585Z,98822.63
2023-04-02T09:21:21.759Z,98820.16
2023-04-02T09:23:50.320Z,98830.34
2023-04-02T09:26:26.708Z,98824.00
2023-04-02T09:29:12.924Z,98823.72
2023-04-02T09:31:45.581Z,98831.28
2023-04-02T09:34:36.426Z,98827.22
2023-04-02T09:37:13.350Z,98832.31
2023-04-02T09:39:40.242Z,98833.09
2023-04-02T09:42:31.265Z,98835.41
2023-04-02T09:45:19.784Z,98836.19
2023-04-02T09:47:47.554Z,98844.25
2023-04-02T09:50:25.518Z,98841.19
2023-04-02T09:52:53.645Z,98844.88
2023-04-02T09:55:22.536Z,98846.28
2023-04-02T09:57:52.652Z,98852.31
2023-04-02T10:03:11.102Z,98852.13
2023-04-02T10:05:41.238Z,98850.59
2023-04-02T10:08:19.641Z,98848.72
2023-04-02T10:10:52.782Z,98850.47
2023-04-02T10:13:30.593Z,98839.22
2023-04-02T10:16:21.099Z,98839.53
2023-04-02T10:18:58.325Z,98840.00
2023-04-02T10:21:33.949Z,98838.66
2023-04-02T10:24:01.656Z,98837.78
2023-04-02T10:26:42.871Z,98844.31
2023-04-02T10:29:22.627Z,98843.66
2023-04-02T10:31:59.431Z,98837.34
2023-04-02T10:34:43.725Z,98842.28
2023-04-02T10:37:42.977Z,98849.28
2023-04-02T10:40:16.527Z,98844.16
2023-04-02T10:42:51.657Z,98841.06
2023-04-02T10:45:44.434Z,98845.22
2023-04-02T10:48:41.753Z,98848.47
2023-04-02T10:51:44.592Z,98851.88
2023-04-02T10:54:33.831Z,98851.72
2023-04-02T10:57:42.777Z,98866.28
2023-04-02T11:00:12.911Z,98859.31
2023-04-02T11:02:54.965Z,98861.97
2023-04-02T11:05:41.979Z,98868.63
2023-04-02T11:08:42.650Z,98878.06
2023-04-02T11:11:17.353Z,98873.84
2023-04-02T11:14:19.281Z,98881.47
2023-04-02T11:16:50.569Z,98884.53
2023-04-02T11:19:17.434Z,98881.75
2023-04-02T11:21:58.075Z,98884.38
2023-04-02T11:24:30.835Z,98887.97
2023-04-02T11:27:03.601Z,98889.66
2023-04-02T11:29:32.729Z,98898.50
2023-04-02T11:32:41.366Z,98899.56
2023-04-02T11:35:32.723Z,98901.13
2023-04-02T11:38:25.395Z,98902.34
2023-04-02T11:40:58.724Z,98898.19
2023-04-02T11:43:34.760Z,98911.34
2023-04-02T11:46:04.932Z,98907.34
2023-04-02T11:48:36.750Z,98918.16
2023-04-02T11:51:21.872Z,98935.81
2023-04-02T11:53:51.664Z,98938.78
2023-04-02T11:56:28.706Z,98940.59
2023-04-02T11:59:12.227Z,98945.06
2023-04-02T12:01:49.563Z,98961.50
2023-04-02T12:04:37.683Z,98964.84
2023-04-02T12:07:26.729Z,98980.44
2023-04-02T12:10:00.389Z,98994.88
2023-04-02T12:12:34.680Z,99004.13
2023-04-02T12:15:02.120Z,99010.00
2023-04-02T12:17:40.755Z,99008.22
2023-04-02T12:20:07.819Z,99016.91
2023-04-02T12:22:38.859Z,99025.75
2023-04-02T12:25:33.406Z,99028.75
2023-04-02T12:28:16.881Z,99033.53
2023-04-02T12:30:45.582Z,99036.16
2023-04-02T12:33:15.734Z,99040.91
2023-04-02T12:35:44.396Z,99044.97
2023-04-02T12:38:26.864Z,99045.47
2023-04-02T12:40:59.793Z,99049.91
2023-04-02T12:43:35.288Z,99062.81
2023-04-02T12:46:05.899Z,99059.09
2023-04-02T12:48:34.261Z,99057.22
2023-04-02T12:51:02.919Z,99065.19
2023-04-02T12:53:39.378Z,99065.94
2023-04-02T12:56:07.301Z,99069.25
2023-04-02T12:58:42.611Z,99072.75
2023-04-02T13:01:16.929Z,99072.50
2023-04-02T13:03:57.866Z,99073.25
2023-04-02T13:06:25.031Z,99079.34
2023-04-02T13:08:52.846Z,99077.84
2023-04-02T13:11:20.519Z,99086.97
2023-04-02T13:13:48.156Z,99081.59
2023-04-02T13:16:14.939Z,99085.59
2023-04-02T13:18:44.294Z,99098.47
2023-04-02T13:21:17.026Z,99094.25
2023-04-02T13:23:44.805Z,99098.63
2023-04-02T13:26:18.817Z,99102.78
2023-04-02T13:29:18.907Z,99106.16
2023-04-02T13:31:46.253Z,99110.00
2023-04-02T13:34:15.647Z,99105.97
2023-04-02T13:36:42.489Z,99108.84
2023-04-02T13:39:10.351Z,99110.69
2023-04-02T13:41:41.991Z,99108.84
2023-04-02T13:44:19.275Z,99111.78
2023-04-02T13:46:46.380Z,99112.91
2023-04-02T13:49:15.409Z,99116.09
2023-04-02T13:52:04.572Z,99118.91
2023-04-02T13:54:54.311Z,99120.78
2023-04-02T13:57:21.761Z,99118.91
2023-04-02T13:59:49.972Z,99120.97
2023-04-02T14:02:20.544Z,99125.34
2023-04-02T14:05:03.062Z,99119.19
2023-04-02T14:07:48.106Z,99126.97
2023-04-02T14:10:30.599Z,99128.16
2023-04-02T14:12:57.443Z,99123.53
2023-04-02T14:15:36.585Z,99127.06
2023-04-02T14:18:40.970Z,99119.13
2023-04-02T14:21:30.548Z,99119.41
2023-04-02T14:24:03.274Z,99123.66
2023-04-02T14:26:52.183Z,99126.94
2023-04-02T14:30:00.392Z,99126.94
2023-04-02T14:33:03.772Z,99132.44
2023-04-02T14:35:51.795Z,99136.72
2023-04-02T14:38:49.141Z,99127.09
2023-04-02T14:41:30.017Z,99135.16
2023-04-02T14:44:03.624Z,99142.06
2023-04-02T14:46:38.139Z,99139.91
2023-04-02T14:49:26.858Z,99141.75
2023-04-02T14:52:03.906Z,99144.38
2023-04-02T14:54:39.954Z,99145.44
2023-04-02T14:57:12.975Z,99154.09
2023-04-02T14:59:51.002Z,99151.47
2023-04-02T15:02:33.139Z,99153.03
2023-04-02T15:05:06.053Z,99154.88
2023-04-02T15:07:51.247Z,99159.34
2023-04-02T15:10:39.688Z,99157.22
2023-04-02T15:13:16.734Z,99158.47
2023-04-02T15:16:04.132Z,99170.03
2023-04-02T15:18:31.741Z,99166.63
2023-04-02T15:21:16.914Z,99155.06
2023-04-02T15:24:02.597Z,99164.22
2023-04-02T15:27:07.202Z,99178.09
2023-04-02T15:30:00.228Z,99172.56
2023-04-02T15:32:33.591Z,99179.13
2023-04-02T15:35:18.099Z,99192.50
2023-04-02T15:38:20.656Z,99187.81
2023-04-02T15:41:15.851Z,99197.03
2023-04-02T15:44:16.574Z,99201.38
2023-04-02T15:47:09.131Z,99209.81
2023-04-02T15:49:43.516Z,99213.13
2023-04-02T15:52:33.977Z,99217.13
2023-04-02T15:55:14.267Z,99218.16
2023-04-02T15:57:44.054Z,99225.56
2023-04-02T16:00:25.791Z,99235.88
2023-04-02T16:03:06.763Z,99237.16
2023-04-02T16:05:50.996Z,99246.09
2023-04-02T16:08:47.609Z,99257.06
2023-04-02T16:11:15.556Z,99258.69
2023-04-02T16:13:45.607Z,99266.34
2023-04-02T16:16:33.264Z,99269.53
2023-04-02T16:19:05.733Z,99273.78
2023-04-02T16:22:13.138Z,99285.44
2023-04-02T16:24:41.030Z,99286.00
2023-04-02T16:27:29.988Z,99289.72
2023-04-02T16:30:46.435Z,99305.03
2023-04-02T16:33:36.889Z,99294.84
2023-04-02T16:36:22.802Z,99305.91
2023-04-02T16:39:18.869Z,99313.41
2023-04-02T16:41:57.759Z,99309.34
2023-04-02T16:45:09.946Z,99315.28
2023-04-02T16:48:23.800Z,99318.50
2023-04-02T16:51:33.192Z,99330.34
2023-04-02T16:54:14.075Z,99340.81
2023-04-02T16:57:12.778Z,99345.66
2023-04-02T17:00:18.989Z,99349.84
2023-04-02T17:03:02.801Z,99352.69
2023-04-02T17:05:43.110Z,99365.31
2023-04-02T17:08:21.711Z,99373.19
2023-04-02T17:11:00.346Z,99382.34
2023-04-02T17:13:32.843Z,99378.41
2023-04-02T17:16:09.341Z,99390.31
2023-04-02T17:18:41.016Z,99392.63
2023-04-02T17:21:14.276Z,99398.34
2023-04-02T17:26:24.274Z,99421.81
2023-04-02T17:28:55.616Z,99416.34
2023-04-02T17:31:26.073Z,99427.81
2023-04-02T17:33:54.022Z,99429.72
2023-04-02T17:36:38.697Z,99439.75
2023-04-02T17:39:23.951Z,99443.66
2023-04-02T17:42:10.832Z,99456.19
2023-04-02T17:45:05.403Z,99461.44
2023-04-02T17:47:57.992Z,99465.09
2023-04-02T17:50:43.227Z,99484.19
2023-04-02T17:53:20.230Z,99488.13
2023-04-02T17:55:57.502Z,99496.50
2023-04-02T17:59:11.417Z,99504.38
2023-04-02T18:02:00.480Z,99514.34
2023-04-02T18:04:51.198Z,99524.00
2023-04-02T18:07:28.094Z,99525.31
2023-04-02T18:10:29.146Z,99531.31
2023-04-02T18:13:15.238Z,99538.38
2023-04-02T18:15:59.756Z,99540.50
2023-04-02T18:19:09.645Z,99538.41
2023-04-02T18:22:03.045Z,99555.91
2023-04-02T18:25:09.532Z,99562.97
2023-04-02T18:27:47.706Z,99573.38
2023-04-02T18:30:36.112Z,99581.22
2023-04-02T18:33:20.387Z,99595.88
2023-04-02T18:36:14.782Z,99596.13
2023-04-02T18:39:06.218Z,99603.16
2023-04-02T18:41:55.790Z,99612.03
2023-04-02T18:44:31.246Z,99613.31
2023-04-02T18:47:23.112Z,99614.88
2023-04-02T18:50:15.430Z,99609.41
2023-04-02T18:52:44.231Z,99625.34
2023-04-02T18:55:33.137Z,99634.72
2023-04-02T18:58:09.501Z,99644.63
2023-04-02T19:00:46.391Z,99639.91
2023-04-02T19:03:32.035Z,99643.81
2023-04-02T19:06:24.328Z,99646.97
2023-04-02T19:08:59.485Z,99654.78
2023-04-02T19:11:30.132Z,99663.59
2023-04-02T19:14:03.356Z,99661.03
2023-04-02T19:16:53.831Z,99664.69
2023-04-02T19:19:29.447Z,99670.69
2023-04-02T19:22:26.148Z,99668.09
2023-04-02T19:25:02.164Z,99675.91
2023-04-02T19:28:14.931Z,99685.81
2023-04-02T19:31:10.463Z,99683.19
2023-04-02T19:33:56.546Z,99690.47
2023-04-02T19:36:33.081Z,99689.97
2023-04-02T19:39:35.856Z,99711.06
2023-04-02T19:42:17.302Z,99708.19
2023-04-02T19:44:51.337Z,99706.34
2023-04-02T19:47:20.806Z,99708.69
2023-04-02T19:49:48.875Z,99713.38
2023-04-02T19:52:18.691Z,99706.84
2023-04-02T19:54:45.743Z,99723.56
2023-04-02T19:57:16.123Z,99718.06
2023-04-02T19:59:44.262Z,99724.06
2023-04-02T20:02:12.343Z,99728.47
2023-04-02T20:04:40.493Z,99733.69
2023-04-02T20:07:09.381Z,99730.00
2023-04-02T20:09:36.792Z,99744.38
2023-04-02T20:12:05.040Z,99738.38
2023-04-02T20:14:37.964Z,99738.91
2023-04-02T20:17:06.190Z,99744.94
2023-04-02T20:19:34.255Z,99738.69
2023-04-02T20:22:30.468Z,99747.56
2023-04-02T20:24:58.656Z,99746.28
2023-04-02T20:27:27.842Z,99751.44
2023-04-02T20:29:55.880Z,99752.97
2023-04-02T20:32:23.841Z,99762.91
2023-04-02T20:34:52.092Z,99767.84
2023-04-02T20:37:21.246Z,99774.41
2023-04-02T20:39:50.971Z,99769.41
2023-04-02T20:42:17.972Z,99774.16
2023-04-02T20:44:48.273Z,99775.75
2023-04-02T20:47:15.445Z,99786.97
2023-04-02T20:49:43.253Z,99782.22
2023-04-02T20:52:10.170Z,99789.03
2023-04-02T20:54:37.474Z,99783.56
2023-04-02T20:57:04.893Z,99783.00
2023-04-02T20:59:31.925Z,99779.63
2023-04-02T21:01:59.024Z,99770.72
2023-04-02T21:04:28.323Z,99768.13
2023-04-02T21:06:55.269Z,99768.91
2023-04-02T21:09:25.965Z,99764.47
2023-04-02T21:11:52.830Z,99772.28
2023-04-02T21:14:19.615Z,99772.75
2023-04-02T21:16:48.092Z,99778.47
2023-04-02T21:19:15.368Z,99781.84
2023-04-02T21:21:42.140Z,99786.00
2023-04-02T21:24:09.477Z,99793.78
2023-04-02T21:26:39.328Z,99784.41
2023-04-02T21:29:07.183Z,99798.72
2023-04-02T21:31:38.887Z,99797.16
2023-04-02T21:34:06.995Z,99794.31
2023-04-02T21:36:37.133Z,99794.31
2023-04-02T21:39:09.150Z,99789.09
2023-04-02T21:41:41.502Z,99794.53
2023-04-02T21:44:14.629Z,99793.50
2023-04-02T21:46:42.669Z,99787.25
2023-04-02T21:49:12.350Z,99782.81
2023-04-02T21:51:41.431Z,99776.81
2023-04-02T21:54:08.717Z,99785.66
2023-04-02T21:56:38.215Z,99778.38
2023-04-02T21:59:06.491Z,99775.75
2023-04-02T22:01:36.144Z,99775.75
2023-04-02T22:04:05.261Z,99778.88
2023-04-02T22:06:37.443Z,99779.66
2023-04-02T22:09:08.858Z,99785.16
2023-04-02T22:11:48.041Z,99786.22
2023-04-02T22:14:15.439Z,99787.00
2023-04-02T22:16:43.986Z,99784.41
2023-04-02T22:19:13.838Z,99789.09
2023-04-02T22:21:41.388Z,99790.09
2023-04-02T22:24:11.455Z,99790.41
2023-04-02T22:26:39.125Z,99788.28
2023-04-02T22:29:06.095Z,99796.09
2023-04-02T22:31:33.645Z,99788.53
2023-04-02T22:34:00.675Z,99782.28
2023-04-02T22:36:29.904Z,99786.19
2023-04-02T22:38:58.172Z,99783.03
2023-04-02T22:41:27.988Z,99783.78
2023-04-02T22:43:56.942Z,99789.22
2023-04-02T22:46:25.246Z,99784.50
2023-04-02T22:48:54.327Z,99789.19
2023-04-02T22:51:23.355Z,99793.38
2023-04-02T22:53:50.464Z,99788.94
2023-04-02T22:56:20.970Z,99788.22
2023-04-02T22:58:49.650Z,99785.59
2023-04-02T23:01:23.140Z,99787.69
2023-04-02T23:03:50.045Z,99790.81
2023-04-02T23:06:18.515Z,99792.88
2023-04-02T23:08:46.067Z,99793.91
2023-04-02T23:11:16.195Z,99792.38
2023-04-02T23:13:43.961Z,99795.22
2023-04-02T23:16:14.229Z,99788.72
2023-04-02T23:18:44.097Z,99786.81
2023-04-02T23:21:11.546Z,99792.03
2023-04-02T23:23:38.845Z,99802.53
2023-04-02T23:26:20.728Z,99794.44
2023-04-02T23:29:13.210Z,99801.47
2023-04-02T23:31:40.243Z,99791.31
2023-04-02T23:34:07.146Z,99788.44
2023-04-02T23:36:35.447Z,99785.06
2023-04-02T23:39:05.651Z,99789.72
2023-04-02T23:41:32.640Z,99783.50
2023-04-02T23:44:00.578Z,99775.91
2023-04-02T23:46:28.989Z,99783.69
2023-04-02T23:48:57.230Z,99785.50
2023-04-02T23:51:25.812Z,99786.28
2023-04-02T23:53:53.305Z,99776.91
2023-04-02T23:56:20.347Z,99787.09
2023-04-02T23:58:47.928Z,99786.28
